• Join FlightAware (Why Join?)
  • Login
  • US Flag 
02:26AM EST


 

Airport Tracker/Info


-or-


 

Live Flight TrackerFlight Track Log ✈ THY789 ✈ 04-Jul-2013 ✈ LLBG / TLV - LTBA / IST

Flight Track Log - Related Links

Times and Time Zones

All times are in EDT time to prevent confusion due to time zone crossing. See the THY789 flight status page for this flight to view local times or setup timezone preferences in your user account.

Time Position Orientation Groundspeed Altitude Reporting Facility
EDT Latitude Longitude Course Direction KTS MPH feet Rate Location/Type
03:08PM 33.5691 33.9319 333° Northwest  Level Estimated
03:09PM 33.6606 33.8753 333° Northwest  Level Estimated
03:09PM 32.5660 33.1630 333° Northwest 437 503 30,000  Level FlightAware
03:10PM 33.7521 33.8186 333° Northwest  Level Estimated
03:10PM 32.6070 33.0710 298° West 438 504 30,000  Level FlightAware
03:11PM 32.6560 32.9610 298° West 438 504 30,000  Level FlightAware
03:11PM 32.6790 32.9090 298° West 438 504 30,000  Level FlightAware
03:12PM 32.7150 32.8230 296° West 436 502 30,000  Level FlightAware
03:13PM 32.7730 32.6970 299° West 437 503 30,000  Level FlightAware
03:14PM 32.8180 32.5940 297° West 436 502 30,000 180 Level FlightAware
03:14PM 32.8600 32.5120 301° West 443 510 30,300 180 Climbing FlightAware
03:15PM 32.9090 32.4450 311° West 444 511 30,300 960 Level FlightAware
03:16PM 32.9710 32.4350 352° North 451 519 31,400 1,680 Climbing FlightAware
03:16PM 33.0660 32.3860 337° Northwest 469 540 32,100 900 Climbing FlightAware
03:17PM 33.1430 32.3480 338° Northwest 473 544 32,700 1,020 Climbing FlightAware
03:18PM 33.2290 32.3040 337° Northwest 469 540 33,500 1,200 Climbing FlightAware
03:18PM 33.3190 32.2580 337° Northwest 472 543 34,500 1,380 Climbing FlightAware
03:19PM 33.4020 32.2170 338° Northwest 458 527 35,500 1,440 Climbing FlightAware
03:20PM 33.4870 32.1730 337° Northwest 455 524 36,600 1,200 Climbing FlightAware
03:21PM 33.5700 32.1310 337° Northwest 456 525 37,200 720 Climbing FlightAware
03:21PM 33.6570 32.0860 337° Northwest 457 526 37,700 540 Climbing FlightAware
03:22PM 33.7340 32.0470 337° Northwest 453 521 38,000 240 Climbing FlightAware
03:22PM 33.8040 32.0110 337° Northwest 453 521 38,000  Level FlightAware
03:23PM 33.9020 31.9610 337° Northwest 453 521 38,000  Level FlightAware
03:24PM 33.9700 31.9260 337° Northwest 454 522 38,000  Level FlightAware
03:25PM 34.0580 31.8800 337° Northwest 453 521 38,000  Level FlightAware
03:25PM 34.1390 31.8390 337° Northwest 452 520 38,000  Level FlightAware
03:26PM 34.2350 31.7890 337° Northwest 458 527 38,000  Level FlightAware
03:27PM 34.3160 31.7470 337° Northwest 459 528 38,000  Level FlightAware
03:28PM 34.3950 31.7050 336° Northwest 453 521 38,000  Level FlightAware
03:28PM 34.4740 31.6640 337° Northwest 454 522 38,000  Level FlightAware
03:29PM 34.5540 31.6220 337° Northwest 454 522 38,000  Level FlightAware
03:30PM 34.6320 31.5810 337° Northwest 459 528 38,000  Level FlightAware
03:31PM 34.7500 31.5190 337° Northwest 455 524 38,000  Level FlightAware
03:31PM 34.8280 31.4780 337° Northwest 455 524 38,000  Level FlightAware
03:32PM 34.9060 31.4360 336° Northwest 455 524 38,000  Level FlightAware
03:33PM 34.9840 31.3950 337° Northwest 453 521 38,000  Level FlightAware
03:33PM 35.0710 31.3480 336° Northwest 443 510 38,000  Level FlightAware
03:34PM 35.1480 31.3070 336° Northwest 442 509 38,000  Level FlightAware
03:35PM 35.2240 31.2670 337° Northwest 442 509 38,000  Level FlightAware
03:35PM 35.3010 31.2250 336° Northwest 441 507 38,000  Level FlightAware
03:36PM 35.3790 31.1840 337° Northwest 440 506 38,000  Level FlightAware
03:37PM 35.4730 31.1330 336° Northwest 440 506 38,000  Level FlightAware
03:38PM 35.5480 31.0920 336° Northwest 440 506 38,000  Level FlightAware
03:38PM 35.6230 31.0520 337° Northwest 439 505 38,000  Level FlightAware
03:39PM 35.7090 31.0050 336° Northwest 439 505 38,000  Level FlightAware
03:40PM 35.7760 30.9690 336° Northwest 439 505 38,000  Level FlightAware
03:40PM 35.8600 30.9230 336° Northwest 439 505 38,000  Level FlightAware
03:41PM 35.9490 30.8750 336° Northwest 441 507 38,000  Level FlightAware
03:42PM 36.0280 30.8420 341° North 449 517 38,000  Level FlightAware
03:42PM 36.1120 30.8220 349° North 467 537 38,000  Level FlightAware
03:43PM 36.1900 30.8180 358° North 465 535 38,000  Level FlightAware
03:44PM 36.3080 30.8150 359° North 464 534 38,000  Level FlightAware
03:45PM 36.3950 30.8130 359° North 464 534 38,000  Level FlightAware
03:45PM 36.5020 30.8090 358° North 464 534 38,000  Level FlightAware
03:47PM 36.6580 30.8040 359° North 469 540 38,000  Level FlightAware
03:47PM 36.7430 30.8010 358° North 469 540 38,000  Level FlightAware
03:48PM 36.8400 30.7970 358° North 464 534 38,000  Level FlightAware
03:49PM 36.9310 30.7930 358° North 471 542 38,000  Level FlightAware
03:49PM 37.0180 30.7820 354° North 470 541 38,000  Level FlightAware
03:50PM 37.1150 30.7700 354° North 471 542 38,000  Level FlightAware
03:51PM 37.2010 30.7600 355° North 465 535 38,000  Level FlightAware
03:51PM 37.2980 30.7480 354° North 467 537 38,000  Level FlightAware
03:52PM 37.3850 30.7370 354° North 468 539 38,000  Level FlightAware
03:53PM 37.4740 30.7250 354° North 467 537 38,000  Level FlightAware
03:54PM 37.5740 30.7100 353° North 472 543 38,000  Level FlightAware
03:54PM 37.6550 30.6930 351° North 452 520 38,000  Level FlightAware
03:55PM 37.7460 30.6480 339° North 452 520 38,000  Level FlightAware
03:56PM 37.8190 30.6110 338° Northwest 450 518 38,000  Level FlightAware
03:56PM 37.9120 30.5650 339° North 450 518 38,000  Level FlightAware
03:57PM 37.9870 30.5280 339° North 450 518 38,000  Level FlightAware
03:58PM 38.0630 30.4900 339° North 448 516 38,000  Level FlightAware
03:58PM 38.1540 30.4450 339° North 449 517 38,000  Level FlightAware
03:59PM 38.2100 30.4160 338° Northwest 449 517 38,000  Level FlightAware
04:00PM 38.3760 30.3340 339° North 451 519 38,000  Level FlightAware
04:01PM 38.4650 30.2890 338° Northwest 453 521 38,000  Level FlightAware
04:02PM 38.5720 30.2350 338° Northwest 447 514 38,000  Level FlightAware
04:03PM 38.6370 30.2020 338° Northwest 447 514 38,000  Level FlightAware
04:04PM 38.7710 30.1350 339° North 456 525 38,000  Level FlightAware
04:05PM 38.8570 30.0910 338° Northwest 454 522 38,000 -480 Level FlightAware
04:05PM 38.9420 30.0480 339° North 453 521 37,300 -960 Descending FlightAware
04:06PM 39.0220 30.0070 338° Northwest 457 526 36,700 -1,320 Descending FlightAware
04:07PM 39.1160 29.9590 338° Northwest 455 524 35,400 -1,680 Descending FlightAware
04:07PM 39.1980 29.9170 338° Northwest 444 511 34,200 -1,800 Descending FlightAware
04:08PM 39.2800 29.8740 338° Northwest 434 499 32,900 -1,680 Descending FlightAware
04:09PM 39.4040 29.8050 337° Northwest 417 480 31,100 -1,560 Descending FlightAware
04:10PM 39.4850 29.7610 337° Northwest 403 464 29,800 -1,560 Descending FlightAware
04:11PM 39.5790 29.7090 337° Northwest 400 460 28,400 -1,620 Descending FlightAware
04:12PM 39.6510 29.6700 337° Northwest 386 444 27,300 -1,140 Descending FlightAware
04:13PM 39.7380 29.6200 336° Northwest 389 448 26,600 -1,560 Descending FlightAware
04:13PM 39.8180 29.5770 338° Northwest 369 425 24,700 -2,100 Descending FlightAware
04:14PM 39.8690 29.5490 337° Northwest 371 427 23,900 -1,560 Descending FlightAware
04:15PM 39.9280 29.5160 337° Northwest 366 421 23,000 -1,500 Descending FlightAware
04:15PM 39.9960 29.4770 336° Northwest 351 404 21,900 -840 Descending FlightAware
04:16PM 40.0590 29.4410 336° Northwest 350 403 21,700 -1,500 Descending FlightAware
04:17PM 40.1320 29.4010 337° Northwest 347 399 19,700 -2,100 Descending FlightAware
04:18PM 40.2120 29.3560 337° Northwest 335 386 18,400 -1,500 Descending FlightAware
04:18PM 40.2640 29.3270 337° Northwest 333 383 17,500 -1,500 Descending FlightAware
04:19PM 40.3340 29.2880 337° Northwest 336 387 16,300 -1,440 Descending FlightAware
04:20PM 40.3870 29.2570 336° Northwest 333 383 15,400 -1,200 Descending FlightAware
04:21PM 40.4550 29.2190 337° Northwest 319 367 14,600 -1,020 Descending FlightAware
04:21PM 40.4980 29.1900 333° Northwest 306 352 14,100 -1,080 Descending FlightAware
04:22PM 40.5490 29.1490 329° Northwest 304 350 13,200 -1,260 Descending FlightAware
04:23PM 40.6170 29.0950 329° Northwest 301 346 12,000 -1,260 Descending FlightAware
04:23PM 40.6610 29.0590 328° Northwest 286 329 11,300 -1,320 Descending FlightAware
04:24PM 40.7090 29.0210 329° Northwest 284 327 10,300 -1,560 Descending FlightAware
04:24PM 40.7280 29.0040 326° Northwest 288 331 9,900 -1,440 Descending FlightAware
04:25PM 40.7370 28.9910 312° West 287 330 9,700 -1,440 Descending FlightAware
04:25PM 40.7470 28.9700 302° West 284 327 9,300 -1,740 Descending FlightAware
04:25PM 40.7700 28.9240 303° West 292 336 8,400 -1,440 Descending FlightAware
04:26PM 40.7880 28.8870 303° West 287 330 8,000 -1,200 Descending FlightAware
04:26PM 40.8100 28.8440 304° West 279 321 7,300 -1,380 Descending FlightAware
04:26PM 40.8200 28.8240 303° West 279 321 7,000 -1,200 Descending FlightAware
04:27PM 40.8320 28.7880 294° West 284 327 6,500 -840 Descending FlightAware
04:27PM 40.8200 28.7490 248° West 276 318 6,300 -660 Descending FlightAware
04:28PM 40.7990 28.7050 238° Southwest 263 303 5,900 -960 Descending FlightAware
04:28PM 40.7860 28.6750 240° Southwest 266 306 5,500 -1,200 Descending FlightAware
04:28PM 40.7810 28.6580 249° West 264 304 5,200 -1,380 Descending FlightAware
04:29PM 40.7880 28.6060 280° West 257 296 4,500 -1,200 Descending FlightAware
04:29PM 40.7960 28.5900 303° West 252 290 4,300 -840 Descending FlightAware
04:29PM 40.8100 28.5770 325° Northwest 233 268 4,100 -660 Descending FlightAware
04:30PM 40.8410 28.5820 North 197 227 3,700 -720 Descending FlightAware
04:31PM 40.8670 28.6080 37° Northeast 184 212 3,200 -840 Descending FlightAware
04:31PM 40.8930 28.6540 53° Northeast 159 183 2,700 -720 Descending FlightAware
04:32PM 40.9100 28.6900 58° Northeast 155 178 2,200 -660 Descending FlightAware
04:32PM 40.9170 28.7050 58° Northeast 142 163 2,000 -780 Descending FlightAware
04:33PM 40.9240 28.7200 58° Northeast 134 154 1,700 -840 Descending FlightAware
04:33PM 40.9310 28.7360 60° Northeast 125 144 1,400 -600 Descending FlightAware
04:33PM 40.9350 28.7440 56° Northeast 126 145 1,300 -720 Descending FlightAware
04:34PM 40.9450 28.7650 58° Northeast 129 148 900 -780 Descending FlightAware
04:34PM 40.9520 28.7810 60° Northeast 129 148 600 -720 Descending FlightAware
04:35PM 40.9600 28.7990 60° Northeast 129 148 300 -360 Descending FlightAware
04:35PM 40.9680 28.8150 56° Northeast 129 148 300  Level FlightAware
04:36PM 40.9760 28.8320 58° Northeast 29 33 -360 Descending FlightAware
04:39PM 40.9769 28.8211 276° West  Level Estimated
04:39PM 40.9760 28.8250 276° West 9 10  Level FlightAware
04:40PM 40.9760 28.8230 270° West 7 8  Level FlightAware
04:43PM 40.9769 28.8211 302° West  Level Estimated
04:44PM 40.9769 28.8211 21° North  Level Estimated
04:45PM 40.9769 28.8211 21° North  Level Estimated
04:46PM 40.9769 28.8211 21° North  Level Estimated